| time (UTC) | temp C | wind direction | speed KPH | gust KPH | rain 1hr cm | rain 24hr cm | rain mn cm | humidity % | barometer mb |
| 20260503203531 | 20 | 214 | 4.8 | 16.1 | 0.00 | 0.00 | 0.00 | 43 | 1016.0 |
| 20260503203049 | 20 | 194 | 8.0 | 16.1 | 0.00 | 0.00 | 0.00 | 42 | 1016.0 |
| 20260503202532 | 20 | 77 | 8.0 | 17.7 | 0.00 | 0.00 | 0.00 | 41 | 1016.0 |
| 20260503202033 | 20 | 158 | 4.8 | 17.7 | 0.00 | 0.00 | 0.00 | 43 | 1016.1 |
| 20260503201542 | 20 | 196 | 4.8 | 14.5 | 0.00 | 0.00 | 0.00 | 42 | 1016.2 |
| 20260503201031 | 20 | 291 | 4.8 | 14.5 | 0.00 | 0.00 | 0.00 | 40 | 1016.1 |
| 20260503200533 | 20 | 164 | 1.6 | 12.9 | 0.00 | 0.00 | 0.00 | 38 | 1016.3 |
| 20260503200044 | 20 | 268 | 4.8 | 12.9 | 0.00 | 0.00 | 0.00 | 38 | 1016.4 |
| 20260503195535 | 20 | 230 | 4.8 | 14.5 | 0.00 | 0.00 | 0.00 | 38 | 1016.4 |
| 20260503195031 | 20 | 84 | 3.2 | 14.5 | 0.00 | 0.00 | 0.00 | 35 | 1016.4 |
| 20260503194547 | 20 | 220 | 6.4 | 12.9 | 0.00 | 0.00 | 0.00 | 35 | 1016.5 |
| 20260503194034 | 20 | 281 | 1.6 | 8.0 | 0.00 | 0.00 | 0.00 | 38 | 1016.5 |
| 20260503193535 | 20 | 5 | 3.2 | 8.0 | 0.00 | 0.00 | 0.00 | 35 | 1016.7 |
| 20260503193052 | 20 | 299 | 1.6 | 11.3 | 0.00 | 0.00 | 0.00 | 37 | 1016.8 |
| 20260503192531 | 19 | 181 | 3.2 | 11.3 | 0.00 | 0.00 | 0.00 | 34 | 1016.8 |
| 20260503192031 | 19 | 0 | 3.2 | 11.3 | 0.00 | 0.00 | 0.00 | 35 | 1017.0 |
| 20260503191544 | 19 | 0 | 1.6 | 14.5 | 0.00 | 0.00 | 0.00 | 36 | 1017.1 |
| 20260503191034 | 19 | 211 | 4.8 | 14.5 | 0.00 | 0.00 | 0.00 | 37 | 1017.2 |
| 20260503190532 | 19 | 225 | 1.6 | 11.3 | 0.00 | 0.00 | 0.00 | 34 | 1017.1 |
| 20260503190043 | 19 | 187 | 3.2 | 11.3 | 0.00 | 0.00 | 0.00 | 34 | 1017.4 |
| 20260503185531 | 19 | 272 | 1.6 | 6.4 | 0.00 | 0.00 | 0.00 | 34 | 1017.5 |
| 20260503185035 | 19 | 346 | 0.0 | 12.9 | 0.00 | 0.00 | 0.00 | 36 | 1017.4 |
| 20260503184552 | 19 | 93 | 1.6 | 14.5 | 0.00 | 0.00 | 0.00 | 35 | 1017.5 |
| 20260503184032 | 19 | 249 | 8.0 | 14.5 | 0.00 | 0.00 | 0.00 | 32 | 1017.6 |
| 20260503183532 | 19 | 179 | 3.2 | 11.3 | 0.00 | 0.00 | 0.00 | 35 | 1017.7 |
| 20260503183102 | 19 | 285 | 3.2 | 9.7 | 0.00 | 0.00 | 0.00 | 34 | 1017.8 |
| 20260503182534 | 18 | 302 | 1.6 | 11.3 | 0.00 | 0.00 | 0.00 | 35 | 1017.9 |
| 20260503182033 | 18 | 207 | 4.8 | 14.5 | 0.00 | 0.00 | 0.00 | 35 | 1017.9 |
| 20260503181547 | 18 | 189 | 6.4 | 14.5 | 0.00 | 0.00 | 0.00 | 32 | 1018.0 |
| 20260503181034 | 18 | 163 | 6.4 | 14.5 | 0.00 | 0.00 | 0.00 | 31 | 1018.0 |
| 20260503180534 | 18 | 263 | 3.2 | 14.5 | 0.00 | 0.00 | 0.00 | 35 | 1018.0 |
| 20260503180047 | 18 | 199 | 8.0 | 14.5 | 0.00 | 0.00 | 0.00 | 28 | 1018.1 |
| 20260503175532 | 18 | 202 | 3.2 | 11.3 | 0.00 | 0.00 | 0.00 | 34 | 1018.2 |
| 20260503175031 | 18 | 152 | 1.6 | 11.3 | 0.00 | 0.00 | 0.00 | 34 | 1018.2 |
| 20260503174543 | 18 | 217 | 1.6 | 9.7 | 0.00 | 0.00 | 0.00 | 38 | 1018.3 |
| 20260503174032 | 18 | 99 | 1.6 | 6.4 | 0.00 | 0.00 | 0.00 | 34 | 1018.2 |
| 20260503173532 | 18 | 161 | 1.6 | 9.7 | 0.00 | 0.00 | 0.00 | 36 | 1018.3 |
| 20260503173108 | 18 | 262 | 1.6 | 12.9 | 0.00 | 0.00 | 0.00 | 38 | 1018.5 |
| 20260503172535 | 17 | 271 | 3.2 | 14.5 | 0.00 | 0.00 | 0.00 | 35 | 1018.5 |
| 20260503172031 | 17 | 177 | 8.0 | 14.5 | 0.00 | 0.00 | 0.00 | 34 | 1018.7 |
| 20260503171545 | 17 | 182 | 3.2 | 9.7 | 0.00 | 0.00 | 0.00 | 34 | 1018.8 |
| 20260503171034 | 17 | 145 | 3.2 | 8.0 | 0.00 | 0.00 | 0.00 | 43 | 1018.7 |
| 20260503170534 | 17 | 84 | 1.6 | 9.7 | 0.00 | 0.00 | 0.00 | 38 | 1018.8 |
| 20260503150534 | 15 | 80 | 4.8 | 12.9 | 0.00 | 0.00 | 0.00 | 48 | 1020.0 |
| 20260503150110 | 15 | 159 | 4.8 | 12.9 | 0.00 | 0.00 | 0.00 | 48 | 1020.0 |
| 20260503131037 | 11 | 293 | 0.0 | 3.2 | 0.00 | 0.00 | 0.00 | 72 | 1020.0 |
| 20260503130536 | 10 | 74 | 0.0 | 6.4 | 0.00 | 0.00 | 0.00 | 73 | 1020.0 |
| 20260503120106 | 4 | 0 | 0.0 | 0.0 | 0.00 | 0.00 | 0.00 | 95 | 1019.7 |
| 20260503110533 | 2 | 0 | 0.0 | 0.0 | 0.00 | 0.00 | 0.00 | 94 | 1019.2 |
| 20260503081547 | 4 | 0 | 0.0 | 3.2 | 0.00 | 0.00 | 0.00 | 91 | 1017.4 |
| 20260503081031 | 4 | 0 | 1.6 | 3.2 | 0.00 | 0.00 | 0.00 | 91 | 1017.4 |
| 20260503080538 | 4 | 0 | 0.0 | 0.0 | 0.00 | 0.00 | 0.00 | 91 | 1017.2 |
| 20260503072533 | 4 | 0 | 0.0 | 0.0 | 0.00 | 0.00 | 0.00 | 90 | 1017.0 |
| 20260503072034 | 4 | 0 | 0.0 | 0.0 | 0.00 | 0.00 | 0.00 | 89 | 1016.9 |
| 20260503071545 | 4 | 0 | 0.0 | 0.0 | 0.00 | 0.00 | 0.00 | 89 | 1016.9 |
| 20260503071033 | 4 | 0 | 0.0 | 0.0 | 0.00 | 0.00 | 0.00 | 88 | 1016.7 |
| 20260503070534 | 5 | 0 | 0.0 | 0.0 | 0.00 | 0.00 | 0.00 | 88 | 1016.8 |
| 20260503055029 | 5 | 0 | 0.0 | 0.0 | 0.00 | 0.00 | 0.00 | 87 | 1016.6 |
| 20260503054545 | 5 | 0 | 0.0 | 0.0 | 0.00 | 0.00 | 0.00 | 86 | 1016.6 |
| 20260503054035 | 5 | 0 | 0.0 | 0.0 | 0.00 | 0.00 | 0.00 | 86 | 1016.5 |
| 20260503053537 | 6 | 0 | 0.0 | 0.0 | 0.00 | 0.00 | 0.00 | 85 | 1016.6 |
| 20260503053045 | 6 | 0 | 0.0 | 0.0 | 0.00 | 0.00 | 0.00 | 85 | 1016.5 |
| 20260503052531 | 6 | 0 | 0.0 | 0.0 | 0.00 | 0.00 | 0.00 | 84 | 1016.6 |
| 20260503052031 | 6 | 0 | 0.0 | 0.0 | 0.00 | 0.00 | 0.00 | 83 | 1016.6 |
| 20260503051544 | 6 | 0 | 0.0 | 0.0 | 0.00 | 0.00 | 0.00 | 84 | 1016.6 |
| 20260503051033 | 6 | 0 | 0.0 | 0.0 | 0.00 | 0.00 | 0.00 | 85 | 1016.5 |
| 20260503050530 | 6 | 0 | 0.0 | 0.0 | 0.00 | 0.00 | 0.00 | 85 | 1016.6 |
| 20260503050045 | 6 | 0 | 0.0 | 1.6 | 0.00 | 0.00 | 0.00 | 85 | 1016.6 |
| 20260503045533 | 6 | 0 | 0.0 | 3.2 | 0.00 | 0.00 | 0.00 | 85 | 1016.5 |
| 20260503045029 | 6 | 0 | 0.0 | 3.2 | 0.00 | 0.00 | 0.00 | 83 | 1016.5 |
| 20260503044545 | 6 | 33 | 0.0 | 3.2 | 0.00 | 0.00 | 0.00 | 82 | 1016.5 |
| 20260503044030 | 6 | 0 | 0.0 | 3.2 | 0.00 | 0.00 | 0.00 | 82 | 1016.4 |
| 20260503043530 | 7 | 0 | 0.0 | 3.2 | 0.00 | 0.00 | 0.00 | 81 | 1016.3 |
| 20260503043044 | 7 | 330 | 0.0 | 4.8 | 0.00 | 0.00 | 0.00 | 80 | 1016.3 |
| 20260503042533 | 7 | 0 | 1.6 | 6.4 | 0.00 | 0.00 | 0.00 | 79 | 1016.3 |
| 20260503042034 | 7 | 257 | 1.6 | 6.4 | 0.00 | 0.00 | 0.00 | 80 | 1016.1 |
| 20260503041553 | 7 | 290 | 1.6 | 3.2 | 0.00 | 0.00 | 0.00 | 78 | 1016.2 |
| 20260503041031 | 8 | 274 | 1.6 | 4.8 | 0.00 | 0.00 | 0.00 | 76 | 1016.1 |
| 20260503040530 | 8 | 274 | 1.6 | 4.8 | 0.00 | 0.00 | 0.00 | 75 | 1016.1 |
| 20260503040055 | 8 | 274 | 1.6 | 4.8 | 0.00 | 0.00 | 0.00 | 75 | 1016.0 |
| 20260503035533 | 7 | 285 | 1.6 | 3.2 | 0.00 | 0.00 | 0.00 | 76 | 1015.9 |
| 20260503035033 | 7 | 292 | 1.6 | 3.2 | 0.00 | 0.00 | 0.00 | 78 | 1015.9 |
| 20260503034558 | 8 | 292 | 1.6 | 3.2 | 0.00 | 0.00 | 0.00 | 76 | 1015.8 |
| 20260503034034 | 8 | 292 | 0.0 | 3.2 | 0.00 | 0.00 | 0.00 | 77 | 1015.7 |
| 20260503033533 | 7 | 292 | 1.6 | 4.8 | 0.00 | 0.00 | 0.00 | 74 | 1015.6 |
| 20260503033047 | 7 | 292 | 1.6 | 4.8 | 0.00 | 0.00 | 0.00 | 76 | 1015.6 |
| 20260503032533 | 7 | 304 | 0.0 | 3.2 | 0.00 | 0.00 | 0.00 | 75 | 1015.6 |
| 20260503032033 | 7 | 305 | 1.6 | 3.2 | 0.00 | 0.00 | 0.00 | 77 | 1015.6 |
| 20260503031544 | 8 | 311 | 1.6 | 3.2 | 0.00 | 0.00 | 0.00 | 76 | 1015.6 |
| 20260503031034 | 8 | 0 | 0.0 | 3.2 | 0.00 | 0.00 | 0.00 | 74 | 1015.6 |
| 20260503030534 | 8 | 0 | 0.0 | 1.6 | 0.00 | 0.00 | 0.00 | 73 | 1015.5 |
| 20260503030053 | 8 | 0 | 0.0 | 3.2 | 0.00 | 0.00 | 0.00 | 72 | 1015.5 |
| 20260503025533 | 9 | 0 | 0.0 | 3.2 | 0.00 | 0.00 | 0.00 | 72 | 1015.4 |
| 20260503025033 | 9 | 270 | 0.0 | 3.2 | 0.00 | 0.00 | 0.00 | 73 | 1015.4 |
| 20260503024546 | 10 | 270 | 1.6 | 3.2 | 0.00 | 0.00 | 0.00 | 71 | 1015.4 |
| 20260503024031 | 10 | 270 | 0.0 | 3.2 | 0.00 | 0.00 | 0.00 | 69 | 1015.3 |
| 20260503023535 | 10 | 0 | 1.6 | 4.8 | 0.00 | 0.00 | 0.00 | 67 | 1015.2 |
| 20260503023043 | 10 | 270 | 1.6 | 4.8 | 0.00 | 0.00 | 0.00 | 67 | 1015.3 |
| 20260503022533 | 10 | 256 | 1.6 | 3.2 | 0.00 | 0.00 | 0.00 | 65 | 1015.3 |
| 20260503022036 | 10 | 0 | 1.6 | 3.2 | 0.00 | 0.00 | 0.00 | 64 | 1015.2 |
| 20260503021546 | 10 | 256 | 0.0 | 3.2 | 0.00 | 0.00 | 0.00 | 64 | 1015.1 |
| 20260503021034 | 10 | 0 | 0.0 | 3.2 | 0.00 | 0.00 | 0.00 | 65 | 1015.1 |
| 20260503020533 | 10 | 254 | 1.6 | 4.8 | 0.00 | 0.00 | 0.00 | 64 | 1015.1 |
| 20260503020047 | 10 | 252 | 1.6 | 4.8 | 0.00 | 0.00 | 0.00 | 62 | 1015.0 |
| 20260503015533 | 10 | 242 | 1.6 | 4.8 | 0.00 | 0.00 | 0.00 | 60 | 1014.9 |
| 20260503015033 | 10 | 277 | 1.6 | 3.2 | 0.00 | 0.00 | 0.00 | 62 | 1014.7 |
| 20260503014549 | 11 | 269 | 0.0 | 3.2 | 0.00 | 0.00 | 0.00 | 60 | 1014.6 |
| 20260503014035 | 11 | 269 | 1.6 | 3.2 | 0.00 | 0.00 | 0.00 | 62 | 1014.5 |
| 20260503013534 | 11 | 258 | 1.6 | 3.2 | 0.00 | 0.00 | 0.00 | 59 | 1014.5 |
| 20260503013045 | 11 | 271 | 1.6 | 3.2 | 0.00 | 0.00 | 0.00 | 59 | 1014.4 |
| 20260503012531 | 11 | 0 | 0.0 | 3.2 | 0.00 | 0.00 | 0.00 | 58 | 1014.3 |
| 20260503012035 | 11 | 261 | 0.0 | 3.2 | 0.00 | 0.00 | 0.00 | 56 | 1014.3 |
| 20260503011545 | 11 | 343 | 0.0 | 3.2 | 0.00 | 0.00 | 0.00 | 55 | 1014.2 |
| 20260503011030 | 11 | 0 | 0.0 | 3.2 | 0.00 | 0.00 | 0.00 | 58 | 1014.1 |
| 20260503010533 | 12 | 242 | 0.0 | 3.2 | 0.00 | 0.00 | 0.00 | 56 | 1014.0 |
| 20260503010050 | 12 | 236 | 1.6 | 4.8 | 0.00 | 0.00 | 0.00 | 54 | 1014.0 |
| 20260503005533 | 12 | 267 | 1.6 | 4.8 | 0.00 | 0.00 | 0.00 | 56 | 1013.9 |
| 20260503005035 | 12 | 220 | 1.6 | 3.2 | 0.00 | 0.00 | 0.00 | 56 | 1013.7 |
| 20260503004543 | 13 | 252 | 1.6 | 6.4 | 0.00 | 0.00 | 0.00 | 55 | 1013.6 |
| 20260503004035 | 13 | 232 | 1.6 | 8.0 | 0.00 | 0.00 | 0.00 | 53 | 1013.5 |
| 20260503003533 | 13 | 0 | 1.6 | 8.0 | 0.00 | 0.00 | 0.00 | 54 | 1013.5 |
| 20260503003051 | 13 | 0 | 1.6 | 6.4 | 0.00 | 0.00 | 0.00 | 53 | 1013.4 |
| 20260503002533 | 13 | 0 | 1.6 | 6.4 | 0.00 | 0.00 | 0.00 | 52 | 1013.3 |
| 20260503002033 | 13 | 346 | 1.6 | 6.4 | 0.00 | 0.00 | 0.00 | 56 | 1013.2 |
| 20260503001601 | 13 | 221 | 1.6 | 11.3 | 0.00 | 0.00 | 0.00 | 53 | 1013.1 |
| 20260503001036 | 13 | 207 | 3.2 | 12.9 | 0.00 | 0.00 | 0.00 | 52 | 1012.9 |
| 20260503000535 | 13 | 279 | 1.6 | 12.9 | 0.00 | 0.00 | 0.00 | 53 | 1012.8 |
| 20260503000100 | 14 | 25 | 1.6 | 6.4 | 0.00 | 0.00 | 0.00 | 57 | 1012.8 |
| 20260502235536 | 14 | 315 | 1.6 | 4.8 | 0.00 | 0.00 | 0.00 | 53 | 1012.7 |
| 20260502235030 | 14 | 121 | 0.0 | 4.8 | 0.00 | 0.00 | 0.00 | 53 | 1012.6 |
| 20260502234545 | 14 | 72 | 0.0 | 6.4 | 0.00 | 0.00 | 0.00 | 54 | 1012.5 |
| 20260502234031 | 14 | 0 | 0.0 | 6.4 | 0.00 | 0.00 | 0.00 | 54 | 1012.3 |
| 20260502233533 | 14 | 63 | 0.0 | 6.4 | 0.00 | 0.00 | 0.00 | 49 | 1012.3 |
| 20260502233045 | 14 | 0 | 1.6 | 4.8 | 0.00 | 0.00 | 0.00 | 55 | 1012.2 |
| 20260502232533 | 14 | 33 | 0.0 | 4.8 | 0.00 | 0.00 | 0.00 | 55 | 1012.1 |
| 20260502232033 | 15 | 134 | 1.6 | 6.4 | 0.00 | 0.00 | 0.00 | 50 | 1012.1 |
| 20260502231555 | 15 | 257 | 0.0 | 6.4 | 0.00 | 0.00 | 0.00 | 55 | 1012.0 |
| 20260502231035 | 15 | 234 | 0.0 | 6.4 | 0.00 | 0.00 | 0.00 | 53 | 1012.0 |
| 20260502230604 | 15 | 0 | 1.6 | 11.3 | 0.00 | 0.00 | 0.00 | 49 | 1011.9 |
| 20260502230044 | 15 | 79 | 0.0 | 11.3 | 0.00 | 0.00 | 0.00 | 52 | 1011.9 |
| 20260502225534 | 15 | 111 | 0.0 | 6.4 | 0.00 | 0.00 | 0.00 | 54 | 1011.9 |
| 20260502225034 | 15 | 186 | 1.6 | 8.0 | 0.00 | 0.00 | 0.00 | 46 | 1011.9 |
| 20260502224552 | 15 | 342 | 3.2 | 8.0 | 0.00 | 0.00 | 0.00 | 52 | 1011.9 |
| 20260502224035 | 15 | 280 | 1.6 | 9.7 | 0.00 | 0.00 | 0.00 | 51 | 1011.8 |
| 20260502223534 | 15 | 184 | 1.6 | 9.7 | 0.00 | 0.00 | 0.00 | 49 | 1011.8 |
| 20260502223046 | 15 | 256 | 3.2 | 9.7 | 0.00 | 0.00 | 0.00 | 53 | 1011.8 |
| 20260502222535 | 16 | 131 | 1.6 | 9.7 | 0.00 | 0.00 | 0.00 | 61 | 1011.7 |
| 20260502222035 | 16 | 109 | 1.6 | 8.0 | 0.00 | 0.00 | 0.00 | 61 | 1011.7 |
| 20260502221546 | 16 | 224 | 1.6 | 6.4 | 0.00 | 0.00 | 0.00 | 60 | 1011.6 |
| 20260502221035 | 16 | 319 | 1.6 | 4.8 | 0.00 | 0.00 | 0.00 | 63 | 1011.6 |
| 20260502220536 | 16 | 262 | 0.0 | 4.8 | 0.00 | 0.00 | 0.00 | 59 | 1011.5 |
| 20260502220050 | 16 | 0 | 0.0 | 4.8 | 0.00 | 0.00 | 0.00 | 62 | 1011.5 |
| 20260502215535 | 16 | 0 | 1.6 | 4.8 | 0.00 | 0.00 | 0.00 | 58 | 1011.4 |
| 20260502215034 | 16 | 229 | 1.6 | 4.8 | 0.00 | 0.00 | 0.00 | 62 | 1011.2 |
| 20260502214544 | 16 | 134 | 1.6 | 4.8 | 0.00 | 0.00 | 0.00 | 66 | 1011.2 |
| 20260502214034 | 16 | 51 | 1.6 | 4.8 | 0.00 | 0.00 | 0.00 | 65 | 1011.2 |
| 20260502213535 | 16 | 207 | 0.0 | 3.2 | 0.00 | 0.00 | 0.00 | 60 | 1011.1 |
| 20260502213045 | 16 | 0 | 0.0 | 3.2 | 0.00 | 0.00 | 0.00 | 62 | 1011.0 |
| 20260502212535 | 16 | 123 | 1.6 | 3.2 | 0.00 | 0.00 | 0.00 | 62 | 1010.9 |
| 20260502212035 | 16 | 122 | 0.0 | 3.2 | 0.00 | 0.00 | 0.00 | 60 | 1010.9 |
| 20260502211548 | 16 | 124 | 1.6 | 3.2 | 0.00 | 0.00 | 0.00 | 61 | 1010.8 |
| 20260502211035 | 16 | 0 | 0.0 | 3.2 | 0.00 | 0.00 | 0.00 | 61 | 1010.8 |
| 20260502210531 | 16 | 267 | 0.0 | 1.6 | 0.00 | 0.00 | 0.00 | 58 | 1010.8 |
| 20260502210056 | 16 | 0 | 0.0 | 3.2 | 0.00 | 0.00 | 0.00 | 55 | 1011.0 |
| 20260502205535 | 16 | 0 | 0.0 | 6.4 | 0.00 | 0.00 | 0.00 | 53 | 1011.0 |
| 20260502205034 | 17 | 0 | 0.0 | 6.4 | 0.00 | 0.00 | 0.00 | 54 | 1010.9 |
| 20260502204546 | 17 | 45 | 3.2 | 6.4 | 0.00 | 0.00 | 0.00 | 53 | 1010.9 |
| 20260502204036 | 17 | 123 | 3.2 | 8.0 | 0.00 | 0.00 | 0.00 | 53 | 1010.9 |